createdAt,value
2023-02-03T00:00:21.856Z,98.05
2023-02-03T00:01:21.849Z,98.66
2023-02-03T00:02:21.870Z,98.05
2023-02-03T00:03:21.902Z,98.05
2023-02-03T00:04:21.822Z,98.15
2023-02-03T00:05:21.830Z,98.15
2023-02-03T00:06:21.787Z,98.15
2023-02-03T00:07:21.798Z,98.15
2023-02-03T00:08:21.764Z,98.56
2023-02-03T00:09:21.791Z,98.56
2023-02-03T00:10:21.756Z,98.77
2023-02-03T00:11:21.763Z,99.18
2023-02-03T00:12:21.721Z,99.29
2023-02-03T00:13:21.731Z,99.23
2023-02-03T00:14:21.696Z,99.13
2023-02-03T00:15:21.711Z,98.77
2023-02-03T00:16:21.725Z,98.56
2023-02-03T00:17:21.680Z,98.97
2023-02-03T00:18:21.659Z,98.87
2023-02-03T00:19:21.675Z,99.08
2023-02-03T00:20:21.640Z,99.18
2023-02-03T00:21:21.668Z,99.18
2023-02-03T00:22:21.613Z,99.18
2023-02-03T00:23:21.630Z,99.08
2023-02-03T00:24:21.597Z,99.18
2023-02-03T00:25:21.601Z,99.29
2023-02-03T00:26:21.583Z,99.60
2023-02-03T00:27:21.577Z,99.64
2023-02-03T00:28:21.550Z,99.29
2023-02-03T00:29:21.558Z,99.54
2023-02-03T00:30:21.545Z,99.60
2023-02-03T00:31:21.690Z,99.64
2023-02-03T00:32:21.656Z,99.74
2023-02-03T00:33:21.548Z,99.54
2023-02-03T00:34:21.488Z,99.64
2023-02-03T00:35:21.507Z,99.54
2023-02-03T00:36:21.502Z,99.74
2023-02-03T00:37:21.507Z,99.85
2023-02-03T00:38:21.449Z,99.99
2023-02-03T00:39:21.467Z,99.99
2023-02-03T00:40:21.428Z,99.99
2023-02-03T00:41:21.448Z,99.99
2023-02-03T00:42:21.413Z,99.99
2023-02-03T00:43:21.439Z,99.99
2023-02-03T00:44:21.382Z,99.99
2023-02-03T00:45:21.387Z,99.99
2023-02-03T00:46:21.414Z,99.99
2023-02-03T00:47:21.382Z,99.95
2023-02-03T00:48:21.347Z,99.99
2023-02-03T00:49:21.351Z,99.99
2023-02-03T00:50:21.322Z,99.99
2023-02-03T00:51:21.331Z,99.99
2023-02-03T00:52:21.308Z,99.99
2023-02-03T00:53:21.332Z,99.99
2023-02-03T00:54:21.279Z,99.99
2023-02-03T00:55:21.289Z,99.99
2023-02-03T00:56:21.257Z,99.95
2023-02-03T00:57:21.279Z,99.99
2023-02-03T00:58:21.276Z,99.91
2023-02-03T00:59:21.241Z,99.91
2023-02-03T01:00:21.237Z,99.99
2023-02-03T01:01:21.310Z,99.91
2023-02-03T01:02:21.234Z,99.99
2023-02-03T01:03:21.202Z,99.91
2023-02-03T01:04:21.174Z,99.70
2023-02-03T01:05:21.183Z,99.80
2023-02-03T01:06:21.169Z,99.99
2023-02-03T01:07:21.175Z,99.99
2023-02-03T01:08:21.147Z,99.91
2023-02-03T01:09:21.143Z,99.91
2023-02-03T01:10:21.109Z,99.99
2023-02-03T01:11:21.126Z,99.91
2023-02-03T01:12:21.105Z,99.70
2023-02-03T01:13:21.115Z,99.60
2023-02-03T01:14:21.113Z,99.99
2023-02-03T01:15:21.078Z,99.80
2023-02-03T01:16:21.103Z,99.99
2023-02-03T01:17:21.038Z,99.99
2023-02-03T01:18:21.065Z,99.99
2023-02-03T01:19:21.038Z,99.99
2023-02-03T01:20:21.049Z,99.99
2023-02-03T01:21:21.004Z,99.99
2023-02-03T01:22:21.019Z,99.99
2023-02-03T01:23:20.982Z,99.99
2023-02-03T01:24:20.995Z,99.99
2023-02-03T01:25:20.993Z,99.99
2023-02-03T01:26:20.963Z,99.99
2023-02-03T01:27:20.935Z,99.99
2023-02-03T01:28:20.947Z,99.99
2023-02-03T01:29:20.929Z,99.99
2023-02-03T01:30:20.956Z,99.99
2023-02-03T01:31:21.024Z,99.99
2023-02-03T01:32:20.905Z,99.99
2023-02-03T01:33:20.913Z,99.99
2023-02-03T01:34:20.926Z,99.99
2023-02-03T01:35:20.873Z,99.99
2023-02-03T01:36:20.868Z,99.99
2023-02-03T01:37:20.833Z,99.99
2023-02-03T01:38:20.838Z,99.80
2023-02-03T01:39:20.821Z,99.70
2023-02-03T01:40:20.830Z,99.99
2023-02-03T01:41:20.795Z,99.80
2023-02-03T01:42:20.792Z,99.80
2023-02-03T01:43:20.778Z,99.80
2023-02-03T01:44:20.784Z,99.91
2023-02-03T01:45:20.749Z,99.80
2023-02-03T01:46:20.794Z,99.91
2023-02-03T01:47:20.726Z,99.99
2023-02-03T01:48:20.728Z,99.99
2023-02-03T01:49:20.709Z,99.91
2023-02-03T01:50:20.724Z,99.99
2023-02-03T01:51:20.691Z,99.99
2023-02-03T01:52:20.711Z,99.91
2023-02-03T01:53:20.666Z,99.29
2023-02-03T01:54:20.668Z,99.29
2023-02-03T01:55:20.657Z,99.18
2023-02-03T01:56:20.645Z,99.39
2023-02-03T01:57:20.632Z,99.18
2023-02-03T01:58:20.639Z,99.29
2023-02-03T01:59:20.603Z,99.39
2023-02-03T02:00:20.612Z,99.39
2023-02-03T02:01:20.580Z,99.29
2023-02-03T02:02:20.651Z,99.29
2023-02-03T02:03:20.557Z,99.49
2023-02-03T02:04:20.579Z,99.29
2023-02-03T02:05:20.537Z,99.29
2023-02-03T02:06:20.553Z,98.87
2023-02-03T02:07:20.528Z,99.08
2023-02-03T02:08:20.517Z,99.08
2023-02-03T02:09:20.503Z,99.18
2023-02-03T02:10:20.508Z,99.18
2023-02-03T02:11:20.479Z,99.39
2023-02-03T02:12:20.498Z,99.70
2023-02-03T02:13:20.457Z,99.60
2023-02-03T02:14:20.470Z,99.80
2023-02-03T02:15:20.436Z,99.49
2023-02-03T02:16:20.579Z,99.49
2023-02-03T02:17:20.410Z,99.18
2023-02-03T02:18:20.459Z,98.97
2023-02-03T02:19:20.390Z,99.29
2023-02-03T02:20:20.943Z,99.39
2023-02-03T02:21:20.364Z,98.97
2023-02-03T02:22:20.389Z,99.08
2023-02-03T02:23:20.355Z,99.29
2023-02-03T02:24:20.363Z,99.29
2023-02-03T02:25:20.327Z,99.29
2023-02-03T02:26:20.349Z,98.87
2023-02-03T02:27:20.306Z,99.08
2023-02-03T02:28:20.360Z,98.97
2023-02-03T02:29:20.294Z,98.97
2023-02-03T02:30:20.323Z,98.77
2023-02-03T02:31:20.366Z,99.18
2023-02-03T02:32:20.271Z,99.18
2023-02-03T02:33:20.253Z,99.49
2023-02-03T02:34:20.247Z,98.97
2023-02-03T02:35:20.228Z,99.18
2023-02-03T02:36:20.240Z,98.87
2023-02-03T02:37:20.204Z,98.97
2023-02-03T02:38:20.224Z,98.97
2023-02-03T02:39:20.186Z,98.77
2023-02-03T02:40:20.206Z,98.66
2023-02-03T02:41:20.163Z,98.97
2023-02-03T02:42:20.179Z,98.87
2023-02-03T02:43:20.139Z,98.77
2023-02-03T02:44:20.158Z,98.97
2023-02-03T02:45:20.119Z,99.08
2023-02-03T02:46:20.310Z,98.66
2023-02-03T02:47:20.100Z,98.97
2023-02-03T02:48:20.114Z,99.08
2023-02-03T02:49:20.092Z,98.56
2023-02-03T02:50:20.114Z,98.35
2023-02-03T02:51:20.072Z,98.46
2023-02-03T02:52:20.060Z,98.35
2023-02-03T02:53:20.033Z,98.10
2023-02-03T02:54:20.039Z,98.00
2023-02-03T02:55:20.016Z,98.41
2023-02-03T02:56:20.035Z,98.41
2023-02-03T02:57:19.990Z,98.46
2023-02-03T02:58:20.013Z,98.21
2023-02-03T02:59:19.981Z,98.00
2023-02-03T03:00:19.978Z,98.10
2023-02-03T03:01:19.988Z,98.10
2023-02-03T03:02:19.957Z,98.62
2023-02-03T03:03:19.971Z,98.31
2023-02-03T03:04:19.951Z,98.10
2023-02-03T03:05:19.907Z,98.52
2023-02-03T03:06:19.940Z,99.04
2023-02-03T03:07:19.899Z,98.72
2023-02-03T03:08:19.897Z,99.04
2023-02-03T03:09:19.868Z,99.08
2023-02-03T03:10:19.885Z,99.49
2023-02-03T03:11:19.847Z,99.80
2023-02-03T03:12:19.860Z,99.91
2023-02-03T03:13:19.831Z,99.99
2023-02-03T03:14:19.840Z,99.99
2023-02-03T03:15:19.812Z,99.60
2023-02-03T03:16:19.934Z,99.39
2023-02-03T03:17:19.798Z,99.29
2023-02-03T03:18:19.803Z,99.34
2023-02-03T03:19:19.761Z,99.29
2023-02-03T03:20:19.772Z,99.34
2023-02-03T03:21:19.738Z,99.39
2023-02-03T03:22:19.762Z,99.39
2023-02-03T03:23:19.720Z,99.60
2023-02-03T03:24:19.737Z,99.29
2023-02-03T03:25:19.697Z,99.24
2023-02-03T03:26:19.730Z,99.44
2023-02-03T03:27:19.681Z,99.70
2023-02-03T03:28:19.726Z,99.39
2023-02-03T03:29:19.658Z,99.39
2023-02-03T03:30:19.663Z,99.49
2023-02-03T03:31:19.743Z,99.49
2023-02-03T03:32:19.652Z,99.14
2023-02-03T03:33:19.615Z,98.72
2023-02-03T03:34:19.633Z,99.24
2023-02-03T03:35:19.609Z,99.24
2023-02-03T03:36:19.628Z,99.14
2023-02-03T03:37:19.593Z,98.62
2023-02-03T03:38:19.594Z,98.52
2023-02-03T03:39:19.556Z,98.72
2023-02-03T03:40:19.561Z,98.72
2023-02-03T03:41:19.544Z,98.72
2023-02-03T03:42:19.542Z,98.52
2023-02-03T03:43:19.540Z,98.72
2023-02-03T03:44:19.525Z,98.72
2023-02-03T03:45:19.530Z,98.93
2023-02-03T03:46:19.546Z,98.62
2023-02-03T03:47:19.487Z,98.93
2023-02-03T03:48:19.479Z,98.93
2023-02-03T03:49:19.447Z,98.72
2023-02-03T03:50:19.462Z,98.21
2023-02-03T03:51:19.426Z,97.79
2023-02-03T03:52:19.433Z,98.00
2023-02-03T03:53:19.417Z,98.00
2023-02-03T03:54:19.433Z,98.31
2023-02-03T03:55:19.399Z,97.79
2023-02-03T03:56:19.387Z,98.00
2023-02-03T03:57:19.376Z,97.89
2023-02-03T03:58:19.398Z,97.89
2023-02-03T03:59:19.352Z,97.69
2023-02-03T04:00:19.348Z,97.69
2023-02-03T04:01:19.455Z,97.89
2023-02-03T04:02:19.364Z,97.89
2023-02-03T04:03:19.408Z,97.59
2023-02-03T04:04:19.318Z,97.38
2023-02-03T04:05:19.276Z,97.07
2023-02-03T04:06:19.286Z,96.76
2023-02-03T04:07:19.264Z,96.86
2023-02-03T04:08:19.272Z,97.07
2023-02-03T04:09:19.247Z,97.17
2023-02-03T04:10:19.240Z,97.59
2023-02-03T04:11:19.229Z,97.79
2023-02-03T04:12:19.222Z,97.28
2023-02-03T04:13:19.196Z,97.28
2023-02-03T04:14:19.224Z,97.69
2023-02-03T04:15:19.192Z,97.69
2023-02-03T04:16:19.290Z,97.38
2023-02-03T04:17:19.151Z,97.69
2023-02-03T04:18:19.171Z,97.49
2023-02-03T04:19:19.132Z,97.59
2023-02-03T04:20:19.131Z,97.69
2023-02-03T04:21:19.131Z,97.49
2023-02-03T04:22:19.115Z,97.79
2023-02-03T04:23:19.091Z,97.69
2023-02-03T04:24:19.128Z,97.59
2023-02-03T04:25:19.090Z,98.00
2023-02-03T04:26:19.073Z,98.10
2023-02-03T04:27:19.051Z,97.89
2023-02-03T04:28:19.100Z,97.69
2023-02-03T04:29:19.029Z,97.89
2023-02-03T04:30:19.046Z,97.38
2023-02-03T04:31:19.142Z,97.59
2023-02-03T04:32:19.029Z,97.49
2023-02-03T04:33:18.991Z,96.97
2023-02-03T04:34:19.016Z,97.28
2023-02-03T04:35:18.963Z,96.86
2023-02-03T04:36:18.992Z,96.34
2023-02-03T04:37:18.963Z,96.66
2023-02-03T04:38:18.959Z,96.86
2023-02-03T04:39:18.922Z,96.66
2023-02-03T04:40:18.959Z,96.86
2023-02-03T04:41:18.902Z,96.86
2023-02-03T04:42:18.912Z,96.76
2023-02-03T04:43:18.881Z,96.97
2023-02-03T04:44:18.897Z,97.07
2023-02-03T04:45:18.866Z,96.86
2023-02-03T04:46:18.876Z,96.86
2023-02-03T04:47:18.847Z,96.45
2023-02-03T04:48:18.869Z,96.14
2023-02-03T04:49:18.814Z,96.34
2023-02-03T04:50:18.822Z,95.78
2023-02-03T04:51:18.799Z,95.89
2023-02-03T04:52:18.809Z,96.09
2023-02-03T04:53:18.797Z,95.99
2023-02-03T04:54:18.796Z,95.78
2023-02-03T04:55:18.758Z,96.09
2023-02-03T04:56:18.758Z,95.68
2023-02-03T04:57:18.735Z,96.30
2023-02-03T04:58:18.766Z,96.41
2023-02-03T04:59:18.713Z,96.34
2023-02-03T05:00:18.731Z,96.51
2023-02-03T05:01:18.731Z,96.14
2023-02-03T05:02:18.722Z,96.34
2023-02-03T05:03:18.702Z,96.55
2023-02-03T05:04:18.697Z,96.66
2023-02-03T05:05:18.650Z,96.55
2023-02-03T05:06:18.669Z,96.45
2023-02-03T05:07:18.632Z,96.66
2023-02-03T05:08:18.642Z,97.28
2023-02-03T05:09:18.623Z,96.45
2023-02-03T05:10:18.608Z,96.45
2023-02-03T05:11:18.591Z,96.66
2023-02-03T05:12:18.609Z,96.76
2023-02-03T05:13:18.567Z,96.86
2023-02-03T05:14:18.598Z,96.86
2023-02-03T05:15:18.547Z,96.97
2023-02-03T05:16:18.648Z,97.38
2023-02-03T05:17:18.525Z,97.28
2023-02-03T05:18:18.549Z,96.97
2023-02-03T05:19:18.509Z,96.86
2023-02-03T05:20:18.517Z,96.66
2023-02-03T05:21:18.479Z,96.34
2023-02-03T05:22:18.492Z,96.34
2023-02-03T05:23:18.465Z,96.24
2023-02-03T05:24:18.463Z,95.83
2023-02-03T05:25:18.473Z,95.94
2023-02-03T05:26:18.459Z,95.68
2023-02-03T05:27:18.419Z,95.27
2023-02-03T05:28:18.461Z,95.27
2023-02-03T05:29:18.394Z,95.89
2023-02-03T05:30:18.421Z,95.89
2023-02-03T05:31:18.656Z,96.09
2023-02-03T05:32:18.366Z,95.83
2023-02-03T05:33:18.366Z,95.42
2023-02-03T05:34:18.345Z,95.78
2023-02-03T05:35:18.374Z,96.09
2023-02-03T05:36:18.329Z,96.14
2023-02-03T05:37:18.334Z,96.14
2023-02-03T05:38:18.320Z,96.55
2023-02-03T05:39:18.319Z,96.76
2023-02-03T05:40:18.288Z,96.55
2023-02-03T05:41:18.308Z,96.45
2023-02-03T05:42:18.267Z,96.34
2023-02-03T05:43:18.271Z,95.94
2023-02-03T05:44:18.236Z,95.99
2023-02-03T05:45:18.266Z,95.78
2023-02-03T05:46:18.267Z,95.68
2023-02-03T05:47:18.257Z,95.57
2023-02-03T05:48:18.213Z,95.57
2023-02-03T05:49:18.202Z,95.57
2023-02-03T05:50:18.200Z,95.57
2023-02-03T05:51:18.197Z,96.30
2023-02-03T05:52:18.156Z,96.61
2023-02-03T05:53:18.201Z,96.76
2023-02-03T05:54:18.137Z,96.66
2023-02-03T05:55:18.152Z,96.97
2023-02-03T05:56:18.122Z,96.86
2023-02-03T05:57:18.124Z,96.55
2023-02-03T05:58:18.100Z,96.86
2023-02-03T05:59:18.110Z,96.76
2023-02-03T06:00:18.081Z,96.66
2023-02-03T06:01:18.077Z,96.97
2023-02-03T06:02:18.065Z,96.97
2023-02-03T06:03:18.104Z,96.66
2023-02-03T06:04:18.088Z,96.66
2023-02-03T06:05:18.068Z,96.97
2023-02-03T06:06:18.027Z,97.17
2023-02-03T06:07:18.038Z,97.07
2023-02-03T06:08:17.990Z,97.07
2023-02-03T06:09:18.023Z,97.38
2023-02-03T06:10:17.968Z,96.55
2023-02-03T06:11:17.988Z,96.66
2023-02-03T06:12:17.947Z,96.24
2023-02-03T06:13:17.960Z,96.76
2023-02-03T06:14:17.932Z,96.66
2023-02-03T06:15:17.946Z,96.55
2023-02-03T06:16:17.952Z,96.24
2023-02-03T06:17:17.957Z,95.62
2023-02-03T06:18:17.885Z,95.94
2023-02-03T06:19:17.936Z,96.03
2023-02-03T06:20:17.911Z,96.24
2023-02-03T06:21:17.871Z,96.24
2023-02-03T06:22:17.853Z,96.14
2023-02-03T06:23:17.800Z,96.03
2023-02-03T06:24:17.828Z,95.83
2023-02-03T06:25:17.785Z,96.34
2023-02-03T06:26:17.759Z,96.34
2023-02-03T06:27:17.751Z,96.24
2023-02-03T06:28:17.851Z,96.34
2023-02-03T06:29:17.796Z,96.45
2023-02-03T06:30:17.781Z,96.76
2023-02-03T06:31:17.903Z,96.45
2023-02-03T06:32:17.682Z,96.34
2023-02-03T06:33:17.720Z,96.66
2023-02-03T06:34:17.731Z,96.45
2023-02-03T06:35:17.713Z,96.24
2023-02-03T06:36:17.645Z,96.14
2023-02-03T06:37:17.723Z,96.55
2023-02-03T06:38:17.675Z,96.14
2023-02-03T06:39:17.681Z,96.55
2023-02-03T06:40:17.654Z,96.55
2023-02-03T06:41:17.695Z,96.97
2023-02-03T06:42:17.606Z,96.86
2023-02-03T06:43:17.599Z,97.07
2023-02-03T06:44:17.558Z,96.76
2023-02-03T06:45:17.579Z,96.55
2023-02-03T06:46:17.637Z,96.66
2023-02-03T06:47:17.552Z,96.55
2023-02-03T06:48:17.526Z,96.76
2023-02-03T06:49:17.532Z,96.55
2023-02-03T06:50:17.501Z,96.55
2023-02-03T06:51:17.503Z,96.45
2023-02-03T06:52:17.501Z,96.34
2023-02-03T06:53:17.489Z,95.83
2023-02-03T06:54:17.454Z,95.83
2023-02-03T06:55:17.480Z,95.42
2023-02-03T06:56:17.432Z,95.31
2023-02-03T06:57:17.444Z,95.42
2023-02-03T06:58:17.422Z,95.94
2023-02-03T06:59:17.429Z,96.14
2023-02-03T07:00:19.037Z,95.83
2023-02-03T07:01:17.439Z,95.83
2023-02-03T07:02:17.441Z,95.83
2023-02-03T07:03:17.394Z,95.42
2023-02-03T07:04:17.356Z,95.31
2023-02-03T07:05:17.373Z,95.06
2023-02-03T07:06:17.335Z,95.06
2023-02-03T07:07:17.356Z,95.37
2023-02-03T07:08:17.314Z,95.37
2023-02-03T07:09:17.314Z,95.37
2023-02-03T07:10:17.292Z,95.21
2023-02-03T07:11:17.295Z,95.27
2023-02-03T07:12:17.284Z,94.75
2023-02-03T07:13:17.283Z,95.37
2023-02-03T07:14:17.245Z,95.57
2023-02-03T07:15:17.265Z,94.96
2023-02-03T07:16:17.341Z,95.06
2023-02-03T07:17:17.273Z,94.85
2023-02-03T07:18:25.706Z,95.06
2023-02-03T07:19:17.236Z,94.96
2023-02-03T07:20:17.189Z,94.54
2023-02-03T07:21:17.203Z,94.44
2023-02-03T07:22:17.172Z,94.65
2023-02-03T07:23:17.184Z,94.13
2023-02-03T07:24:17.140Z,93.93
2023-02-03T07:25:17.171Z,93.82
2023-02-03T07:26:17.123Z,93.93
2023-02-03T07:27:17.133Z,94.23
2023-02-03T07:28:17.181Z,94.23
2023-02-03T07:29:17.132Z,94.34
2023-02-03T07:30:17.085Z,93.72
2023-02-03T07:31:17.182Z,94.13
2023-02-03T07:32:17.065Z,94.44
2023-02-03T07:33:17.079Z,93.20
2023-02-03T07:34:17.047Z,93.62
2023-02-03T07:35:17.041Z,93.41
2023-02-03T07:36:17.024Z,93.37
2023-02-03T07:37:17.045Z,93.78
2023-02-03T07:38:16.996Z,93.16
2023-02-03T07:39:17.028Z,93.47
2023-02-03T07:40:16.989Z,93.26
2023-02-03T07:41:18.148Z,92.85
2023-02-03T07:42:16.957Z,92.95
2023-02-03T07:43:16.968Z,93.68
2023-02-03T07:44:16.942Z,93.47
2023-02-03T07:45:16.965Z,93.37
2023-02-03T07:46:17.005Z,93.78
2023-02-03T07:47:16.934Z,93.47
2023-02-03T07:48:16.894Z,93.68
2023-02-03T07:49:16.921Z,93.88
2023-02-03T07:50:16.902Z,94.44
2023-02-03T07:51:16.877Z,93.72
2023-02-03T07:52:16.850Z,93.98
2023-02-03T07:53:16.853Z,94.19
2023-02-03T07:54:16.828Z,93.93
2023-02-03T07:55:16.857Z,93.62
2023-02-03T07:56:16.836Z,93.78
2023-02-03T07:57:16.825Z,94.29
2023-02-03T07:58:16.788Z,94.65
2023-02-03T07:59:16.794Z,94.34
2023-02-03T08:00:16.770Z,93.88
2023-02-03T08:01:16.802Z,93.78
2023-02-03T08:02:16.746Z,94.19
2023-02-03T08:03:16.766Z,94.60
2023-02-03T08:04:16.750Z,94.96
2023-02-03T08:05:16.822Z,95.17
2023-02-03T08:06:16.834Z,94.34
2023-02-03T08:07:16.732Z,94.34
2023-02-03T08:08:16.681Z,94.09
2023-02-03T08:09:16.700Z,94.60
2023-02-03T08:10:16.670Z,94.81
2023-02-03T08:11:16.689Z,94.40
2023-02-03T08:12:16.685Z,94.50
2023-02-03T08:13:16.656Z,94.09
2023-02-03T08:14:16.641Z,94.19
2023-02-03T08:15:16.649Z,93.98
2023-02-03T08:16:16.647Z,94.29
2023-02-03T08:17:16.626Z,94.29
2023-02-03T08:18:16.579Z,94.71
2023-02-03T08:19:16.602Z,94.60
2023-02-03T08:20:16.561Z,94.71
2023-02-03T08:21:16.584Z,94.81
2023-02-03T08:22:16.547Z,94.92
2023-02-03T08:23:16.565Z,95.12
2023-02-03T08:24:16.514Z,95.22
2023-02-03T08:25:16.541Z,94.81
2023-02-03T08:26:16.500Z,94.81
2023-02-03T08:27:16.532Z,94.81
2023-02-03T08:28:16.541Z,94.29
2023-02-03T08:29:16.481Z,93.98
2023-02-03T08:30:16.472Z,93.88
2023-02-03T08:31:16.555Z,93.68
2023-02-03T08:32:16.507Z,93.47
2023-02-03T08:33:16.435Z,93.98
2023-02-03T08:34:16.409Z,93.88
2023-02-03T08:35:16.419Z,93.57
2023-02-03T08:36:16.399Z,93.16
2023-02-03T08:37:16.417Z,92.23
2023-02-03T08:38:16.375Z,92.08
2023-02-03T08:39:16.446Z,91.46
2023-02-03T08:40:16.350Z,91.77
2023-02-03T08:41:16.371Z,91.88
2023-02-03T08:42:16.337Z,91.77
2023-02-03T08:43:16.334Z,92.19
2023-02-03T08:44:16.302Z,92.08
2023-02-03T08:45:16.334Z,92.08
2023-02-03T08:46:16.283Z,92.80
2023-02-03T08:47:16.291Z,92.91
2023-02-03T08:48:16.271Z,93.01
2023-02-03T08:49:16.283Z,93.53
2023-02-03T08:50:16.247Z,94.09
2023-02-03T08:51:16.249Z,93.88
2023-02-03T08:52:18.125Z,93.88
2023-02-03T08:53:16.237Z,93.98
2023-02-03T08:54:16.218Z,94.29
2023-02-03T08:55:16.203Z,94.92
2023-02-03T08:56:16.182Z,94.50
2023-02-03T08:57:16.192Z,94.92
2023-02-03T08:58:16.179Z,95.22
2023-02-03T08:59:16.175Z,95.84
2023-02-03T09:00:16.157Z,96.36
2023-02-03T09:01:16.224Z,96.26
2023-02-03T09:02:16.118Z,96.26
2023-02-03T09:03:16.146Z,96.67
2023-02-03T09:04:16.102Z,96.47
2023-02-03T09:05:16.195Z,96.82
2023-02-03T09:06:16.074Z,96.30
2023-02-03T09:07:16.077Z,96.41
2023-02-03T09:08:16.055Z,96.41
2023-02-03T09:09:16.075Z,96.82
2023-02-03T09:10:16.049Z,96.26
2023-02-03T09:11:16.055Z,96.05
2023-02-03T09:12:16.021Z,95.84
2023-02-03T09:13:16.033Z,95.95
2023-02-03T09:14:16.002Z,96.15
2023-02-03T09:15:16.018Z,96.56
2023-02-03T09:16:15.979Z,96.47
2023-02-03T09:17:15.980Z,96.05
2023-02-03T09:18:15.949Z,95.74
2023-02-03T09:19:15.953Z,96.05
2023-02-03T09:20:15.997Z,96.26
2023-02-03T09:21:31.606Z,96.26
2023-02-03T09:22:15.908Z,95.74
2023-02-03T09:23:15.915Z,96.15
2023-02-03T09:24:15.889Z,95.32
2023-02-03T09:25:15.916Z,94.92
2023-02-03T09:26:15.861Z,95.22
2023-02-03T09:27:15.876Z,95.12
2023-02-03T09:28:15.955Z,95.02
2023-02-03T09:29:15.853Z,95.02
2023-02-03T09:30:15.840Z,94.92
2023-02-03T09:31:15.963Z,93.78
2023-02-03T09:32:16.017Z,93.84
2023-02-03T09:33:15.831Z,93.94
2023-02-03T09:34:15.791Z,93.94
2023-02-03T09:35:15.809Z,93.53
2023-02-03T09:36:15.760Z,93.12
2023-02-03T09:37:15.776Z,93.22
2023-02-03T09:38:15.746Z,92.60
2023-02-03T09:39:15.812Z,92.40
2023-02-03T09:40:15.727Z,92.60
2023-02-03T09:41:15.728Z,92.19
2023-02-03T09:42:15.704Z,92.60
2023-02-03T09:43:15.713Z,92.19
2023-02-03T09:44:22.247Z,91.77
2023-02-03T09:45:15.667Z,91.32
2023-02-03T09:46:15.773Z,92.25
2023-02-03T09:47:15.643Z,91.94
2023-02-03T09:48:15.662Z,91.98
2023-02-03T09:49:15.621Z,92.50
2023-02-03T09:50:15.641Z,91.56
2023-02-03T09:51:15.600Z,91.22
2023-02-03T09:52:15.612Z,90.70
2023-02-03T09:53:15.581Z,91.32
2023-02-03T09:54:15.609Z,91.42
2023-02-03T09:55:15.559Z,91.42
2023-02-03T09:56:15.579Z,91.22
2023-02-03T09:57:15.556Z,91.01
2023-02-03T09:58:15.576Z,91.52
2023-02-03T09:59:15.523Z,90.80
2023-02-03T10:00:15.557Z,91.52
2023-02-03T10:01:15.599Z,91.83
2023-02-03T10:02:17.629Z,92.46
2023-02-03T10:03:15.487Z,92.25
2023-02-03T10:04:15.492Z,92.25
2023-02-03T10:05:15.450Z,91.73
2023-02-03T10:06:15.467Z,90.91
2023-02-03T10:07:15.443Z,90.80
2023-02-03T10:08:15.456Z,90.70
2023-02-03T10:09:15.420Z,90.70
2023-02-03T10:10:15.418Z,90.70
2023-02-03T10:11:15.400Z,90.91
2023-02-03T10:12:15.415Z,90.76
2023-02-03T10:13:15.387Z,90.97
2023-02-03T10:14:15.392Z,91.17
2023-02-03T10:15:15.356Z,90.04
2023-02-03T10:16:15.351Z,89.94
2023-02-03T10:17:15.340Z,90.04
2023-02-03T10:18:15.355Z,89.73
2023-02-03T10:19:15.320Z,89.52
2023-02-03T10:20:15.312Z,89.52
2023-02-03T10:21:15.283Z,89.32
2023-02-03T10:22:15.302Z,88.90
2023-02-03T10:23:15.266Z,89.32
2023-02-03T10:24:15.287Z,89.11
2023-02-03T10:25:15.252Z,89.32
2023-02-03T10:26:15.261Z,88.90
2023-02-03T10:27:15.223Z,88.08
2023-02-03T10:28:15.282Z,88.80
2023-02-03T10:29:15.213Z,89.01
2023-02-03T10:30:15.205Z,88.80
2023-02-03T10:31:15.260Z,88.70
2023-02-03T10:32:15.228Z,88.39
2023-02-03T10:33:15.172Z,88.39
2023-02-03T10:34:15.205Z,88.39
2023-02-03T10:35:15.166Z,88.80
2023-02-03T10:36:15.180Z,88.49
2023-02-03T10:37:15.119Z,88.45
2023-02-03T10:38:15.122Z,88.59
2023-02-03T10:39:15.100Z,88.29
2023-02-03T10:40:15.139Z,88.80
2023-02-03T10:41:15.141Z,88.39
2023-02-03T10:42:15.097Z,87.87
2023-02-03T10:43:15.067Z,88.14
2023-02-03T10:44:15.073Z,88.35
2023-02-03T10:45:15.049Z,88.45
2023-02-03T10:46:15.131Z,88.76
2023-02-03T10:47:15.017Z,88.04
2023-02-03T10:48:15.032Z,88.04
2023-02-03T10:49:15.833Z,88.14
2023-02-03T10:50:15.151Z,88.86
2023-02-03T10:51:14.976Z,87.93
2023-02-03T10:52:14.988Z,87.32
2023-02-03T10:53:14.965Z,86.90
2023-02-03T10:54:14.957Z,87.32
2023-02-03T10:55:14.935Z,87.42
2023-02-03T10:56:15.058Z,87.11
2023-02-03T10:57:14.939Z,87.42
2023-02-03T10:58:14.908Z,87.83
2023-02-03T10:59:14.886Z,87.32
2023-02-03T11:00:14.915Z,87.32
2023-02-03T11:01:14.908Z,87.11
2023-02-03T11:02:14.908Z,87.21
2023-02-03T11:03:14.845Z,86.49
2023-02-03T11:04:14.858Z,87.17
2023-02-03T11:05:14.825Z,86.66
2023-02-03T11:06:14.849Z,87.17
2023-02-03T11:07:14.810Z,87.69
2023-02-03T11:08:14.807Z,87.07
2023-02-03T11:09:14.781Z,86.97
2023-02-03T11:10:14.806Z,87.17
2023-02-03T11:11:14.779Z,87.27
2023-02-03T11:12:14.783Z,86.97
2023-02-03T11:13:14.759Z,87.01
2023-02-03T11:14:14.760Z,87.17
2023-02-03T11:15:14.723Z,87.52
2023-02-03T11:16:14.769Z,87.17
2023-02-03T11:17:14.715Z,86.15
2023-02-03T11:18:14.756Z,86.76
2023-02-03T11:19:14.674Z,86.35
2023-02-03T11:20:14.719Z,86.24
2023-02-03T11:21:14.674Z,86.55
2023-02-03T11:22:14.680Z,86.45
2023-02-03T11:23:14.632Z,85.31
2023-02-03T11:24:14.650Z,85.83
2023-02-03T11:25:14.612Z,85.73
2023-02-03T11:26:14.630Z,86.15
2023-02-03T11:27:14.595Z,86.55
2023-02-03T11:28:14.643Z,86.55
2023-02-03T11:29:14.573Z,86.15
2023-02-03T11:30:14.583Z,85.73
2023-02-03T11:31:14.641Z,85.73
2023-02-03T11:32:14.570Z,85.31
2023-02-03T11:33:14.539Z,85.31
2023-02-03T11:34:14.555Z,85.42
2023-02-03T11:35:14.523Z,85.22
2023-02-03T11:36:14.513Z,85.63
2023-02-03T11:37:14.486Z,85.83
2023-02-03T11:38:14.490Z,85.52
2023-02-03T11:39:14.483Z,85.42
2023-02-03T11:40:14.484Z,86.24
2023-02-03T11:41:14.443Z,86.24
2023-02-03T11:42:14.550Z,85.83
2023-02-03T11:43:14.421Z,85.63
2023-02-03T11:44:14.444Z,85.94
2023-02-03T11:45:14.419Z,86.55
2023-02-03T11:46:14.440Z,86.24
2023-02-03T11:47:14.381Z,86.15
2023-02-03T11:48:14.385Z,85.83
2023-02-03T11:49:14.360Z,85.63
2023-02-03T11:50:14.391Z,86.15
2023-02-03T11:51:14.359Z,85.94
2023-02-03T11:52:14.361Z,85.73
2023-02-03T11:53:14.335Z,85.94
2023-02-03T11:54:14.336Z,85.94
2023-02-03T11:55:14.310Z,85.73
2023-02-03T11:56:14.302Z,86.24
2023-02-03T11:57:14.275Z,85.83
2023-02-03T11:58:14.296Z,85.94
2023-02-03T11:59:14.267Z,86.04
2023-02-03T12:00:14.294Z,85.63
2023-02-03T12:01:14.234Z,85.73
2023-02-03T12:02:14.257Z,85.11
2023-02-03T12:03:14.361Z,84.59
2023-02-03T12:04:14.341Z,85.22
2023-02-03T12:05:14.203Z,85.42
2023-02-03T12:06:14.217Z,85.11
2023-02-03T12:07:14.179Z,85.01
2023-02-03T12:08:14.200Z,85.52
2023-02-03T12:09:14.150Z,86.04
2023-02-03T12:10:14.159Z,85.22
2023-02-03T12:11:14.137Z,85.83
2023-02-03T12:12:14.135Z,85.63
2023-02-03T12:13:14.109Z,84.70
2023-02-03T12:14:14.127Z,84.80
2023-02-03T12:15:14.095Z,85.01
2023-02-03T12:16:14.116Z,85.01
2023-02-03T12:17:14.071Z,84.70
2023-02-03T12:18:14.095Z,85.11
2023-02-03T12:19:14.052Z,85.01
2023-02-03T12:20:14.063Z,84.91
2023-02-03T12:21:14.023Z,85.22
2023-02-03T12:22:14.035Z,85.52
2023-02-03T12:23:14.012Z,85.22
2023-02-03T12:24:14.010Z,84.70
2023-02-03T12:25:13.985Z,85.31
2023-02-03T12:26:13.987Z,85.01
2023-02-03T12:27:13.968Z,84.91
2023-02-03T12:28:27.232Z,85.52
2023-02-03T12:29:13.965Z,85.11
2023-02-03T12:30:13.947Z,85.01
2023-02-03T12:31:14.062Z,84.70
2023-02-03T12:32:13.945Z,85.11
2023-02-03T12:33:13.897Z,85.11
2023-02-03T12:34:13.923Z,85.31
2023-02-03T12:35:13.877Z,85.42
2023-02-03T12:36:13.903Z,85.01
2023-02-03T12:37:13.866Z,85.11
2023-02-03T12:38:13.872Z,85.22
2023-02-03T12:39:13.832Z,85.22
2023-02-03T12:40:13.860Z,85.22
2023-02-03T12:41:13.828Z,85.22
2023-02-03T12:42:13.834Z,85.63
2023-02-03T12:43:13.797Z,85.94
2023-02-03T12:44:13.794Z,86.15
2023-02-03T12:45:13.767Z,86.08
2023-02-03T12:46:13.968Z,85.94
2023-02-03T12:47:13.750Z,85.83
2023-02-03T12:48:13.771Z,85.97
2023-02-03T12:49:13.749Z,85.83
2023-02-03T12:50:13.747Z,85.73
2023-02-03T12:51:13.706Z,86.29
2023-02-03T12:52:13.727Z,86.39